sensor_id;sensor_type;location;lat;lon;timestamp;P1;durP1;ratioP1;P2;durP2;ratioP2
17451;SDS011;8843;48.838;9.324;2023-05-14T00:01:52;10.70;;;7.53;;
17451;SDS011;8843;48.838;9.324;2023-05-14T00:04:18;7.73;;;7.00;;
17451;SDS011;8843;48.838;9.324;2023-05-14T00:06:45;8.20;;;7.40;;
17451;SDS011;8843;48.838;9.324;2023-05-14T00:09:12;8.03;;;7.20;;
17451;SDS011;8843;48.838;9.324;2023-05-14T00:11:40;8.60;;;7.70;;
17451;SDS011;8843;48.838;9.324;2023-05-14T00:14:07;7.57;;;6.80;;
17451;SDS011;8843;48.838;9.324;2023-05-14T00:16:34;7.80;;;7.10;;
17451;SDS011;8843;48.838;9.324;2023-05-14T00:19:01;8.53;;;7.53;;
17451;SDS011;8843;48.838;9.324;2023-05-14T00:21:28;8.20;;;7.17;;
17451;SDS011;8843;48.838;9.324;2023-05-14T00:23:55;8.23;;;6.53;;
17451;SDS011;8843;48.838;9.324;2023-05-14T00:26:22;6.83;;;6.13;;
17451;SDS011;8843;48.838;9.324;2023-05-14T00:28:50;8.03;;;7.17;;
17451;SDS011;8843;48.838;9.324;2023-05-14T00:31:17;8.17;;;6.30;;
17451;SDS011;8843;48.838;9.324;2023-05-14T00:33:44;7.97;;;7.17;;
17451;SDS011;8843;48.838;9.324;2023-05-14T00:36:11;6.87;;;6.13;;
17451;SDS011;8843;48.838;9.324;2023-05-14T00:38:38;7.73;;;6.10;;
17451;SDS011;8843;48.838;9.324;2023-05-14T00:41:05;7.47;;;6.67;;
17451;SDS011;8843;48.838;9.324;2023-05-14T00:43:31;8.07;;;6.17;;
17451;SDS011;8843;48.838;9.324;2023-05-14T00:46:00;7.83;;;7.03;;
17451;SDS011;8843;48.838;9.324;2023-05-14T00:48:27;6.87;;;6.17;;
17451;SDS011;8843;48.838;9.324;2023-05-14T00:50:54;6.83;;;6.10;;
17451;SDS011;8843;48.838;9.324;2023-05-14T00:53:21;8.30;;;6.30;;
17451;SDS011;8843;48.838;9.324;2023-05-14T00:55:48;8.93;;;7.20;;
17451;SDS011;8843;48.838;9.324;2023-05-14T00:58:16;7.60;;;6.27;;
17451;SDS011;8843;48.838;9.324;2023-05-14T01:00:44;7.33;;;6.07;;
17451;SDS011;8843;48.838;9.324;2023-05-14T01:03:12;7.93;;;5.73;;
17451;SDS011;8843;48.838;9.324;2023-05-14T01:05:46;7.07;;;6.43;;
17451;SDS011;8843;48.838;9.324;2023-05-14T01:08:22;8.27;;;6.43;;
17451;SDS011;8843;48.838;9.324;2023-05-14T01:10:56;7.70;;;5.57;;
17451;SDS011;8843;48.838;9.324;2023-05-14T01:13:29;10.00;;;6.37;;
17451;SDS011;8843;48.838;9.324;2023-05-14T01:16:03;6.43;;;5.83;;
17451;SDS011;8843;48.838;9.324;2023-05-14T01:18:37;8.27;;;5.83;;
17451;SDS011;8843;48.838;9.324;2023-05-14T01:21:09;6.80;;;6.03;;
17451;SDS011;8843;48.838;9.324;2023-05-14T01:23:47;6.03;;;5.53;;
17451;SDS011;8843;48.838;9.324;2023-05-14T01:26:14;6.30;;;5.70;;
17451;SDS011;8843;48.838;9.324;2023-05-14T01:28:41;6.23;;;5.73;;
17451;SDS011;8843;48.838;9.324;2023-05-14T01:31:11;6.23;;;5.37;;
17451;SDS011;8843;48.838;9.324;2023-05-14T01:33:43;6.50;;;5.90;;
17451;SDS011;8843;48.838;9.324;2023-05-14T01:36:13;5.80;;;5.30;;
17451;SDS011;8843;48.838;9.324;2023-05-14T01:38:40;5.47;;;4.97;;
17451;SDS011;8843;48.838;9.324;2023-05-14T01:41:11;5.33;;;4.83;;
17451;SDS011;8843;48.838;9.324;2023-05-14T01:43:39;5.10;;;4.53;;
17451;SDS011;8843;48.838;9.324;2023-05-14T01:46:06;5.83;;;5.23;;
17451;SDS011;8843;48.838;9.324;2023-05-14T01:48:33;5.27;;;4.73;;
17451;SDS011;8843;48.838;9.324;2023-05-14T01:51:01;4.87;;;4.33;;
17451;SDS011;8843;48.838;9.324;2023-05-14T01:53:28;5.17;;;4.67;;
17451;SDS011;8843;48.838;9.324;2023-05-14T01:55:55;6.93;;;5.00;;
17451;SDS011;8843;48.838;9.324;2023-05-14T01:58:23;4.10;;;3.77;;
17451;SDS011;8843;48.838;9.324;2023-05-14T02:00:50;4.60;;;4.20;;
17451;SDS011;8843;48.838;9.324;2023-05-14T02:03:17;5.30;;;4.80;;
17451;SDS011;8843;48.838;9.324;2023-05-14T02:05:44;4.87;;;4.37;;
17451;SDS011;8843;48.838;9.324;2023-05-14T02:08:11;6.03;;;4.93;;
17451;SDS011;8843;48.838;9.324;2023-05-14T02:10:38;4.90;;;4.50;;
17451;SDS011;8843;48.838;9.324;2023-05-14T02:13:04;6.10;;;4.90;;
17451;SDS011;8843;48.838;9.324;2023-05-14T02:15:34;5.53;;;4.97;;
17451;SDS011;8843;48.838;9.324;2023-05-14T02:18:01;5.07;;;4.67;;
17451;SDS011;8843;48.838;9.324;2023-05-14T02:20:28;5.67;;;4.90;;
17451;SDS011;8843;48.838;9.324;2023-05-14T02:22:55;5.43;;;4.60;;
17451;SDS011;8843;48.838;9.324;2023-05-14T02:25:22;5.57;;;4.87;;
17451;SDS011;8843;48.838;9.324;2023-05-14T02:27:49;7.27;;;4.67;;
17451;SDS011;8843;48.838;9.324;2023-05-14T02:30:16;5.17;;;4.40;;
17451;SDS011;8843;48.838;9.324;2023-05-14T02:32:44;5.43;;;4.93;;
17451;SDS011;8843;48.838;9.324;2023-05-14T02:35:11;5.90;;;4.60;;
17451;SDS011;8843;48.838;9.324;2023-05-14T02:37:38;4.93;;;4.53;;
17451;SDS011;8843;48.838;9.324;2023-05-14T02:40:05;5.43;;;4.53;;
17451;SDS011;8843;48.838;9.324;2023-05-14T02:42:33;6.10;;;4.87;;
17451;SDS011;8843;48.838;9.324;2023-05-14T02:45:00;5.10;;;4.60;;
17451;SDS011;8843;48.838;9.324;2023-05-14T02:47:26;6.77;;;4.43;;
17451;SDS011;8843;48.838;9.324;2023-05-14T02:49:55;4.60;;;4.20;;
17451;SDS011;8843;48.838;9.324;2023-05-14T02:52:21;5.90;;;4.47;;
17451;SDS011;8843;48.838;9.324;2023-05-14T02:54:48;6.97;;;4.77;;
17451;SDS011;8843;48.838;9.324;2023-05-14T02:57:15;5.00;;;4.47;;
17451;SDS011;8843;48.838;9.324;2023-05-14T02:59:42;4.80;;;4.40;;
17451;SDS011;8843;48.838;9.324;2023-05-14T03:02:09;6.47;;;4.83;;
17451;SDS011;8843;48.838;9.324;2023-05-14T03:04:36;5.27;;;4.80;;
17451;SDS011;8843;48.838;9.324;2023-05-14T03:07:04;6.43;;;4.23;;
17451;SDS011;8843;48.838;9.324;2023-05-14T03:09:31;5.63;;;5.13;;
17451;SDS011;8843;48.838;9.324;2023-05-14T03:11:58;7.93;;;5.17;;
17451;SDS011;8843;48.838;9.324;2023-05-14T03:14:25;5.93;;;4.70;;
17451;SDS011;8843;48.838;9.324;2023-05-14T03:16:52;5.50;;;5.00;;
17451;SDS011;8843;48.838;9.324;2023-05-14T03:19:19;5.27;;;4.50;;
17451;SDS011;8843;48.838;9.324;2023-05-14T03:21:46;5.63;;;4.50;;
17451;SDS011;8843;48.838;9.324;2023-05-14T03:24:15;6.40;;;4.80;;
17451;SDS011;8843;48.838;9.324;2023-05-14T03:26:42;5.47;;;4.60;;
17451;SDS011;8843;48.838;9.324;2023-05-14T03:29:09;4.43;;;4.03;;
17451;SDS011;8843;48.838;9.324;2023-05-14T03:31:35;6.50;;;5.33;;
17451;SDS011;8843;48.838;9.324;2023-05-14T03:34:02;5.33;;;4.30;;
17451;SDS011;8843;48.838;9.324;2023-05-14T03:36:29;5.47;;;4.17;;
17451;SDS011;8843;48.838;9.324;2023-05-14T03:38:58;9.83;;;6.40;;
17451;SDS011;8843;48.838;9.324;2023-05-14T03:41:26;6.63;;;4.90;;
17451;SDS011;8843;48.838;9.324;2023-05-14T03:43:53;6.20;;;5.30;;
17451;SDS011;8843;48.838;9.324;2023-05-14T03:46:20;4.60;;;4.20;;
17451;SDS011;8843;48.838;9.324;2023-05-14T03:48:46;7.53;;;5.23;;
17451;SDS011;8843;48.838;9.324;2023-05-14T03:51:13;5.37;;;4.87;;
17451;SDS011;8843;48.838;9.324;2023-05-14T03:53:40;5.40;;;4.43;;
17451;SDS011;8843;48.838;9.324;2023-05-14T03:56:07;4.73;;;4.30;;
17451;SDS011;8843;48.838;9.324;2023-05-14T03:58:35;5.13;;;4.63;;
17451;SDS011;8843;48.838;9.324;2023-05-14T04:01:02;5.10;;;4.60;;
17451;SDS011;8843;48.838;9.324;2023-05-14T04:03:29;4.47;;;4.03;;
17451;SDS011;8843;48.838;9.324;2023-05-14T04:05:56;6.50;;;4.37;;
17451;SDS011;8843;48.838;9.324;2023-05-14T04:08:23;5.53;;;5.03;;
17451;SDS011;8843;48.838;9.324;2023-05-14T04:10:50;4.47;;;4.07;;
17451;SDS011;8843;48.838;9.324;2023-05-14T04:13:16;5.70;;;4.50;;
17451;SDS011;8843;48.838;9.324;2023-05-14T04:15:45;6.23;;;3.60;;
17451;SDS011;8843;48.838;9.324;2023-05-14T04:18:12;5.00;;;4.50;;
17451;SDS011;8843;48.838;9.324;2023-05-14T04:20:38;6.00;;;4.90;;
17451;SDS011;8843;48.838;9.324;2023-05-14T04:23:05;5.17;;;4.77;;
17451;SDS011;8843;48.838;9.324;2023-05-14T04:25:32;6.13;;;4.30;;
17451;SDS011;8843;48.838;9.324;2023-05-14T04:27:59;5.30;;;4.47;;
17451;SDS011;8843;48.838;9.324;2023-05-14T04:30:27;5.40;;;4.90;;
17451;SDS011;8843;48.838;9.324;2023-05-14T04:32:55;5.27;;;4.77;;
17451;SDS011;8843;48.838;9.324;2023-05-14T04:35:23;6.83;;;4.80;;
17451;SDS011;8843;48.838;9.324;2023-05-14T04:37:50;4.33;;;3.93;;
17451;SDS011;8843;48.838;9.324;2023-05-14T04:40:17;5.90;;;5.30;;
17451;SDS011;8843;48.838;9.324;2023-05-14T04:42:44;5.90;;;5.30;;
17451;SDS011;8843;48.838;9.324;2023-05-14T04:45:11;6.17;;;4.97;;
17451;SDS011;8843;48.838;9.324;2023-05-14T04:47:38;6.23;;;5.37;;
17451;SDS011;8843;48.838;9.324;2023-05-14T04:50:08;6.57;;;5.23;;
17451;SDS011;8843;48.838;9.324;2023-05-14T04:52:35;6.07;;;5.10;;
17451;SDS011;8843;48.838;9.324;2023-05-14T04:55:03;7.90;;;5.70;;
17451;SDS011;8843;48.838;9.324;2023-05-14T04:57:30;7.67;;;5.17;;
17451;SDS011;8843;48.838;9.324;2023-05-14T04:59:57;8.23;;;5.13;;
17451;SDS011;8843;48.838;9.324;2023-05-14T05:02:24;5.33;;;4.67;;
17451;SDS011;8843;48.838;9.324;2023-05-14T05:04:51;6.30;;;5.70;;
17451;SDS011;8843;48.838;9.324;2023-05-14T05:07:19;8.07;;;4.83;;
17451;SDS011;8843;48.838;9.324;2023-05-14T05:09:46;5.57;;;5.07;;
17451;SDS011;8843;48.838;9.324;2023-05-14T05:12:13;6.13;;;5.10;;
17451;SDS011;8843;48.838;9.324;2023-05-14T05:14:39;5.83;;;5.07;;
17451;SDS011;8843;48.838;9.324;2023-05-14T05:17:06;5.60;;;5.10;;
17451;SDS011;8843;48.838;9.324;2023-05-14T05:19:33;5.87;;;5.10;;
17451;SDS011;8843;48.838;9.324;2023-05-14T05:22:00;5.50;;;5.00;;
17451;SDS011;8843;48.838;9.324;2023-05-14T05:24:29;5.43;;;4.80;;
17451;SDS011;8843;48.838;9.324;2023-05-14T05:26:55;5.73;;;5.17;;
17451;SDS011;8843;48.838;9.324;2023-05-14T05:29:23;5.40;;;4.90;;
17451;SDS011;8843;48.838;9.324;2023-05-14T05:31:50;6.30;;;5.70;;
17451;SDS011;8843;48.838;9.324;2023-05-14T05:34:17;6.20;;;5.57;;
17451;SDS011;8843;48.838;9.324;2023-05-14T05:36:44;5.60;;;5.13;;
17451;SDS011;8843;48.838;9.324;2023-05-14T05:39:11;6.67;;;5.13;;
17451;SDS011;8843;48.838;9.324;2023-05-14T05:41:39;4.90;;;4.50;;
17451;SDS011;8843;48.838;9.324;2023-05-14T05:44:07;6.40;;;5.20;;
17451;SDS011;8843;48.838;9.324;2023-05-14T05:46:34;6.37;;;5.70;;
17451;SDS011;8843;48.838;9.324;2023-05-14T05:49:01;6.43;;;5.33;;
17451;SDS011;8843;48.838;9.324;2023-05-14T05:51:28;8.43;;;5.40;;
17451;SDS011;8843;48.838;9.324;2023-05-14T05:53:55;7.37;;;6.53;;
17451;SDS011;8843;48.838;9.324;2023-05-14T05:56:22;6.40;;;5.67;;
17451;SDS011;8843;48.838;9.324;2023-05-14T05:58:50;7.00;;;5.60;;
17451;SDS011;8843;48.838;9.324;2023-05-14T06:01:17;8.47;;;5.57;;
17451;SDS011;8843;48.838;9.324;2023-05-14T06:03:44;8.23;;;5.93;;
17451;SDS011;8843;48.838;9.324;2023-05-14T06:06:11;6.37;;;4.83;;
17451;SDS011;8843;48.838;9.324;2023-05-14T06:08:37;6.07;;;5.50;;
17451;SDS011;8843;48.838;9.324;2023-05-14T06:11:04;6.47;;;5.20;;
17451;SDS011;8843;48.838;9.324;2023-05-14T06:13:31;7.63;;;6.20;;
17451;SDS011;8843;48.838;9.324;2023-05-14T06:15:59;7.30;;;6.47;;
17451;SDS011;8843;48.838;9.324;2023-05-14T06:18:26;6.63;;;5.87;;
17451;SDS011;8843;48.838;9.324;2023-05-14T06:20:53;8.83;;;6.07;;
17451;SDS011;8843;48.838;9.324;2023-05-14T06:23:21;6.80;;;6.07;;
17451;SDS011;8843;48.838;9.324;2023-05-14T06:25:48;6.50;;;5.90;;
17451;SDS011;8843;48.838;9.324;2023-05-14T06:28:15;6.83;;;6.10;;
17451;SDS011;8843;48.838;9.324;2023-05-14T06:30:42;6.27;;;5.67;;
17451;SDS011;8843;48.838;9.324;2023-05-14T06:33:10;8.00;;;6.00;;
17451;SDS011;8843;48.838;9.324;2023-05-14T06:35:39;7.93;;;6.53;;
17451;SDS011;8843;48.838;9.324;2023-05-14T06:38:05;8.97;;;6.33;;
17451;SDS011;8843;48.838;9.324;2023-05-14T06:40:32;9.03;;;6.90;;
17451;SDS011;8843;48.838;9.324;2023-05-14T06:42:59;8.10;;;6.50;;
17451;SDS011;8843;48.838;9.324;2023-05-14T06:45:26;6.70;;;6.10;;
17451;SDS011;8843;48.838;9.324;2023-05-14T06:47:54;7.03;;;6.20;;
17451;SDS011;8843;48.838;9.324;2023-05-14T06:50:22;7.73;;;6.63;;
17451;SDS011;8843;48.838;9.324;2023-05-14T06:52:49;6.60;;;5.90;;
17451;SDS011;8843;48.838;9.324;2023-05-14T06:55:16;7.30;;;6.60;;
17451;SDS011;8843;48.838;9.324;2023-05-14T06:57:43;7.83;;;6.77;;
17451;SDS011;8843;48.838;9.324;2023-05-14T07:00:10;7.77;;;6.93;;
17451;SDS011;8843;48.838;9.324;2023-05-14T07:02:38;8.13;;;6.40;;
17451;SDS011;8843;48.838;9.324;2023-05-14T07:05:05;12.07;;;8.17;;
17451;SDS011;8843;48.838;9.324;2023-05-14T07:07:35;8.83;;;7.83;;
17451;SDS011;8843;48.838;9.324;2023-05-14T07:10:02;10.50;;;8.60;;
17451;SDS011;8843;48.838;9.324;2023-05-14T07:12:29;9.70;;;7.53;;
17451;SDS011;8843;48.838;9.324;2023-05-14T07:14:56;14.77;;;8.20;;
17451;SDS011;8843;48.838;9.324;2023-05-14T07:17:23;9.00;;;8.10;;
17451;SDS011;8843;48.838;9.324;2023-05-14T07:19:50;9.77;;;8.57;;
17451;SDS011;8843;48.838;9.324;2023-05-14T07:22:16;9.73;;;8.73;;
17451;SDS011;8843;48.838;9.324;2023-05-14T07:24:45;10.03;;;7.80;;
17451;SDS011;8843;48.838;9.324;2023-05-14T07:27:11;9.10;;;7.20;;
17451;SDS011;8843;48.838;9.324;2023-05-14T07:29:38;8.83;;;7.90;;
17451;SDS011;8843;48.838;9.324;2023-05-14T07:32:05;9.33;;;7.40;;
17451;SDS011;8843;48.838;9.324;2023-05-14T07:34:32;8.67;;;7.77;;
17451;SDS011;8843;48.838;9.324;2023-05-14T07:36:59;9.17;;;8.27;;
17451;SDS011;8843;48.838;9.324;2023-05-14T07:39:26;9.47;;;7.47;;
17451;SDS011;8843;48.838;9.324;2023-05-14T07:41:54;9.77;;;8.47;;
17451;SDS011;8843;48.838;9.324;2023-05-14T07:44:21;9.60;;;8.60;;
17451;SDS011;8843;48.838;9.324;2023-05-14T07:46:48;9.17;;;8.27;;
17451;SDS011;8843;48.838;9.324;2023-05-14T07:49:15;9.80;;;7.60;;
17451;SDS011;8843;48.838;9.324;2023-05-14T07:51:42;9.40;;;8.50;;
17451;SDS011;8843;48.838;9.324;2023-05-14T07:54:09;9.00;;;8.10;;
17451;SDS011;8843;48.838;9.324;2023-05-14T07:56:37;10.17;;;8.23;;
17451;SDS011;8843;48.838;9.324;2023-05-14T07:59:05;10.03;;;8.93;;
17451;SDS011;8843;48.838;9.324;2023-05-14T08:01:32;9.50;;;8.50;;
17451;SDS011;8843;48.838;9.324;2023-05-14T08:03:59;10.40;;;8.60;;
17451;SDS011;8843;48.838;9.324;2023-05-14T08:06:26;9.77;;;8.23;;
17451;SDS011;8843;48.838;9.324;2023-05-14T08:08:53;8.73;;;7.83;;
17451;SDS011;8843;48.838;9.324;2023-05-14T08:11:20;9.47;;;7.93;;
17451;SDS011;8843;48.838;9.324;2023-05-14T08:13:47;9.43;;;8.03;;
17451;SDS011;8843;48.838;9.324;2023-05-14T08:16:15;11.77;;;8.53;;
17451;SDS011;8843;48.838;9.324;2023-05-14T08:18:42;10.23;;;9.13;;
17451;SDS011;8843;48.838;9.324;2023-05-14T08:21:09;9.30;;;8.33;;
17451;SDS011;8843;48.838;9.324;2023-05-14T08:23:36;9.80;;;8.80;;
17451;SDS011;8843;48.838;9.324;2023-05-14T08:26:02;10.37;;;8.50;;
17451;SDS011;8843;48.838;9.324;2023-05-14T08:28:29;12.93;;;10.27;;
17451;SDS011;8843;48.838;9.324;2023-05-14T08:30:56;12.47;;;11.07;;
17451;SDS011;8843;48.838;9.324;2023-05-14T08:33:24;11.03;;;9.83;;
17451;SDS011;8843;48.838;9.324;2023-05-14T08:35:51;11.07;;;9.90;;
17451;SDS011;8843;48.838;9.324;2023-05-14T08:38:19;11.23;;;9.53;;
17451;SDS011;8843;48.838;9.324;2023-05-14T08:40:46;11.27;;;9.43;;
17451;SDS011;8843;48.838;9.324;2023-05-14T08:43:14;10.30;;;9.20;;
17451;SDS011;8843;48.838;9.324;2023-05-14T08:45:45;13.70;;;9.70;;
17451;SDS011;8843;48.838;9.324;2023-05-14T08:48:14;11.50;;;10.30;;
17451;SDS011;8843;48.838;9.324;2023-05-14T08:50:45;10.50;;;9.23;;
17451;SDS011;8843;48.838;9.324;2023-05-14T08:53:12;11.20;;;9.40;;
17451;SDS011;8843;48.838;9.324;2023-05-14T08:55:39;11.60;;;10.40;;
17451;SDS011;8843;48.838;9.324;2023-05-14T08:58:08;10.13;;;8.87;;
17451;SDS011;8843;48.838;9.324;2023-05-14T09:00:34;12.23;;;9.63;;
17451;SDS011;8843;48.838;9.324;2023-05-14T09:03:01;11.67;;;9.77;;
17451;SDS011;8843;48.838;9.324;2023-05-14T09:05:30;11.27;;;8.83;;
17451;SDS011;8843;48.838;9.324;2023-05-14T09:07:59;10.23;;;8.20;;
17451;SDS011;8843;48.838;9.324;2023-05-14T09:10:26;10.13;;;8.40;;
17451;SDS011;8843;48.838;9.324;2023-05-14T09:12:53;11.47;;;9.30;;
17451;SDS011;8843;48.838;9.324;2023-05-14T09:15:20;10.30;;;8.80;;
17451;SDS011;8843;48.838;9.324;2023-05-14T09:17:48;10.10;;;8.27;;
17451;SDS011;8843;48.838;9.324;2023-05-14T09:20:15;9.60;;;8.10;;
17451;SDS011;8843;48.838;9.324;2023-05-14T09:22:42;10.87;;;8.47;;
17451;SDS011;8843;48.838;9.324;2023-05-14T09:25:10;9.37;;;8.23;;
17451;SDS011;8843;48.838;9.324;2023-05-14T09:27:37;8.60;;;7.70;;
17451;SDS011;8843;48.838;9.324;2023-05-14T09:30:08;8.27;;;6.93;;
17451;SDS011;8843;48.838;9.324;2023-05-14T09:32:37;8.40;;;7.53;;
17451;SDS011;8843;48.838;9.324;2023-05-14T09:35:11;9.23;;;7.57;;
17451;SDS011;8843;48.838;9.324;2023-05-14T09:37:41;9.60;;;8.10;;
17451;SDS011;8843;48.838;9.324;2023-05-14T09:40:09;9.40;;;7.73;;
17451;SDS011;8843;48.838;9.324;2023-05-14T09:42:37;8.70;;;7.80;;
17451;SDS011;8843;48.838;9.324;2023-05-14T09:45:05;9.57;;;8.07;;
17451;SDS011;8843;48.838;9.324;2023-05-14T09:47:33;9.03;;;7.30;;
17451;SDS011;8843;48.838;9.324;2023-05-14T09:50:00;8.20;;;7.10;;
17451;SDS011;8843;48.838;9.324;2023-05-14T09:52:27;7.70;;;6.90;;
17451;SDS011;8843;48.838;9.324;2023-05-14T09:54:54;8.93;;;6.97;;
17451;SDS011;8843;48.838;9.324;2023-05-14T09:57:22;8.53;;;7.63;;
17451;SDS011;8843;48.838;9.324;2023-05-14T09:59:50;9.77;;;8.57;;
17451;SDS011;8843;48.838;9.324;2023-05-14T10:02:20;9.60;;;7.40;;
17451;SDS011;8843;48.838;9.324;2023-05-14T10:04:49;9.43;;;8.43;;
17451;SDS011;8843;48.838;9.324;2023-05-14T10:07:18;10.33;;;8.23;;
17451;SDS011;8843;48.838;9.324;2023-05-14T10:09:49;9.90;;;7.53;;
17451;SDS011;8843;48.838;9.324;2023-05-14T10:12:22;8.97;;;7.37;;
17451;SDS011;8843;48.838;9.324;2023-05-14T10:14:52;10.53;;;8.40;;
17451;SDS011;8843;48.838;9.324;2023-05-14T10:17:22;8.93;;;8.03;;
17451;SDS011;8843;48.838;9.324;2023-05-14T10:19:56;8.57;;;7.67;;
17451;SDS011;8843;48.838;9.324;2023-05-14T10:22:27;8.87;;;7.43;;
17451;SDS011;8843;48.838;9.324;2023-05-14T10:24:58;7.50;;;6.50;;
17451;SDS011;8843;48.838;9.324;2023-05-14T10:27:27;6.83;;;6.13;;
17451;SDS011;8843;48.838;9.324;2023-05-14T10:29:54;9.67;;;6.93;;
17451;SDS011;8843;48.838;9.324;2023-05-14T10:32:22;9.63;;;7.23;;
17451;SDS011;8843;48.838;9.324;2023-05-14T10:34:50;10.37;;;6.60;;
17451;SDS011;8843;48.838;9.324;2023-05-14T10:37:19;9.57;;;6.87;;
17451;SDS011;8843;48.838;9.324;2023-05-14T10:39:49;8.40;;;6.93;;
17451;SDS011;8843;48.838;9.324;2023-05-14T10:42:19;7.57;;;6.50;;
17451;SDS011;8843;48.838;9.324;2023-05-14T10:44:50;7.90;;;7.10;;
17451;SDS011;8843;48.838;9.324;2023-05-14T10:47:19;7.57;;;6.73;;
17451;SDS011;8843;48.838;9.324;2023-05-14T10:49:47;9.57;;;7.00;;
17451;SDS011;8843;48.838;9.324;2023-05-14T10:52:15;8.67;;;6.97;;
17451;SDS011;8843;48.838;9.324;2023-05-14T10:54:49;9.17;;;6.93;;
17451;SDS011;8843;48.838;9.324;2023-05-14T10:57:17;10.33;;;7.17;;
17451;SDS011;8843;48.838;9.324;2023-05-14T10:59:45;8.33;;;7.03;;
17451;SDS011;8843;48.838;9.324;2023-05-14T11:02:18;8.00;;;6.90;;
17451;SDS011;8843;48.838;9.324;2023-05-14T11:04:56;8.73;;;6.67;;
17451;SDS011;8843;48.838;9.324;2023-05-14T11:07:26;8.80;;;7.13;;
17451;SDS011;8843;48.838;9.324;2023-05-14T11:10:01;7.60;;;6.30;;
17451;SDS011;8843;48.838;9.324;2023-05-14T11:12:30;8.17;;;7.27;;
17451;SDS011;8843;48.838;9.324;2023-05-14T11:14:58;7.03;;;6.33;;
17451;SDS011;8843;48.838;9.324;2023-05-14T11:17:29;8.07;;;6.57;;
17451;SDS011;8843;48.838;9.324;2023-05-14T11:19:57;7.90;;;6.67;;
17451;SDS011;8843;48.838;9.324;2023-05-14T11:22:24;7.60;;;6.60;;
17451;SDS011;8843;48.838;9.324;2023-05-14T11:24:51;7.33;;;6.43;;
17451;SDS011;8843;48.838;9.324;2023-05-14T11:27:19;7.27;;;6.57;;
17451;SDS011;8843;48.838;9.324;2023-05-14T11:29:48;6.43;;;5.77;;
17451;SDS011;8843;48.838;9.324;2023-05-14T11:32:15;6.10;;;5.50;;
17451;SDS011;8843;48.838;9.324;2023-05-14T11:34:45;6.07;;;5.47;;
17451;SDS011;8843;48.838;9.324;2023-05-14T11:37:12;6.67;;;4.93;;
17451;SDS011;8843;48.838;9.324;2023-05-14T11:39:45;6.03;;;5.37;;
17451;SDS011;8843;48.838;9.324;2023-05-14T11:42:14;5.60;;;5.10;;
17451;SDS011;8843;48.838;9.324;2023-05-14T11:44:42;5.87;;;5.27;;
17451;SDS011;8843;48.838;9.324;2023-05-14T11:47:11;5.40;;;4.90;;
17451;SDS011;8843;48.838;9.324;2023-05-14T11:49:38;5.63;;;5.03;;
17451;SDS011;8843;48.838;9.324;2023-05-14T11:52:06;6.00;;;4.33;;
17451;SDS011;8843;48.838;9.324;2023-05-14T11:54:35;4.20;;;3.80;;
17451;SDS011;8843;48.838;9.324;2023-05-14T11:57:06;4.90;;;4.37;;
17451;SDS011;8843;48.838;9.324;2023-05-14T11:59:34;4.13;;;3.73;;
17451;SDS011;8843;48.838;9.324;2023-05-14T12:02:02;4.80;;;4.27;;
17451;SDS011;8843;48.838;9.324;2023-05-14T12:04:30;5.40;;;4.40;;
17451;SDS011;8843;48.838;9.324;2023-05-14T12:06:58;4.47;;;3.93;;
17451;SDS011;8843;48.838;9.324;2023-05-14T12:09:26;4.27;;;3.87;;
17451;SDS011;8843;48.838;9.324;2023-05-14T12:11:53;3.60;;;3.23;;
17451;SDS011;8843;48.838;9.324;2023-05-14T12:14:21;4.17;;;3.77;;
17451;SDS011;8843;48.838;9.324;2023-05-14T12:16:50;5.77;;;4.87;;
17451;SDS011;8843;48.838;9.324;2023-05-14T12:19:17;4.07;;;3.77;;
17451;SDS011;8843;48.838;9.324;2023-05-14T12:21:46;4.77;;;4.13;;
17451;SDS011;8843;48.838;9.324;2023-05-14T12:24:15;4.80;;;4.40;;
17451;SDS011;8843;48.838;9.324;2023-05-14T12:26:45;4.53;;;4.13;;
17451;SDS011;8843;48.838;9.324;2023-05-14T12:29:13;5.73;;;3.57;;
17451;SDS011;8843;48.838;9.324;2023-05-14T12:31:44;5.40;;;4.13;;
17451;SDS011;8843;48.838;9.324;2023-05-14T12:34:12;5.13;;;3.60;;
17451;SDS011;8843;48.838;9.324;2023-05-14T12:36:39;4.40;;;3.73;;
17451;SDS011;8843;48.838;9.324;2023-05-14T12:39:06;4.10;;;3.70;;
17451;SDS011;8843;48.838;9.324;2023-05-14T12:41:33;3.70;;;3.37;;
17451;SDS011;8843;48.838;9.324;2023-05-14T12:44:02;3.63;;;3.33;;
17451;SDS011;8843;48.838;9.324;2023-05-14T12:46:30;4.00;;;3.70;;
17451;SDS011;8843;48.838;9.324;2023-05-14T12:48:58;4.43;;;4.03;;
17451;SDS011;8843;48.838;9.324;2023-05-14T12:51:25;4.10;;;3.73;;
17451;SDS011;8843;48.838;9.324;2023-05-14T12:53:52;4.53;;;4.10;;
17451;SDS011;8843;48.838;9.324;2023-05-14T12:56:19;4.43;;;4.03;;
17451;SDS011;8843;48.838;9.324;2023-05-14T12:58:51;4.20;;;3.87;;
17451;SDS011;8843;48.838;9.324;2023-05-14T13:01:20;4.30;;;3.70;;
17451;SDS011;8843;48.838;9.324;2023-05-14T13:03:47;4.90;;;3.93;;
17451;SDS011;8843;48.838;9.324;2023-05-14T13:06:14;3.93;;;3.57;;
17451;SDS011;8843;48.838;9.324;2023-05-14T13:08:41;4.07;;;3.67;;
17451;SDS011;8843;48.838;9.324;2023-05-14T13:11:08;4.13;;;3.73;;
17451;SDS011;8843;48.838;9.324;2023-05-14T13:13:35;3.80;;;3.50;;
17451;SDS011;8843;48.838;9.324;2023-05-14T13:16:02;4.87;;;3.80;;
17451;SDS011;8843;48.838;9.324;2023-05-14T13:18:31;3.90;;;3.60;;
17451;SDS011;8843;48.838;9.324;2023-05-14T13:20:57;4.67;;;3.67;;
17451;SDS011;8843;48.838;9.324;2023-05-14T13:23:24;4.20;;;3.80;;
17451;SDS011;8843;48.838;9.324;2023-05-14T13:25:51;4.70;;;4.27;;
17451;SDS011;8843;48.838;9.324;2023-05-14T13:28:18;4.67;;;3.60;;
17451;SDS011;8843;48.838;9.324;2023-05-14T13:33:31;3.90;;;3.57;;
17451;SDS011;8843;48.838;9.324;2023-05-14T13:35:58;4.47;;;3.70;;
17451;SDS011;8843;48.838;9.324;2023-05-14T13:38:25;5.23;;;3.73;;
17451;SDS011;8843;48.838;9.324;2023-05-14T13:40:52;3.40;;;3.10;;
17451;SDS011;8843;48.838;9.324;2023-05-14T13:43:21;3.90;;;3.37;;
17451;SDS011;8843;48.838;9.324;2023-05-14T13:45:48;3.90;;;3.57;;
17451;SDS011;8843;48.838;9.324;2023-05-14T13:48:16;3.90;;;3.50;;
17451;SDS011;8843;48.838;9.324;2023-05-14T13:50:44;3.63;;;3.33;;
17451;SDS011;8843;48.838;9.324;2023-05-14T13:53:11;4.27;;;3.53;;
17451;SDS011;8843;48.838;9.324;2023-05-14T13:55:38;3.97;;;3.57;;
17451;SDS011;8843;48.838;9.324;2023-05-14T13:58:05;3.97;;;3.23;;
17451;SDS011;8843;48.838;9.324;2023-05-14T14:00:34;4.60;;;3.60;;
17451;SDS011;8843;48.838;9.324;2023-05-14T14:03:00;4.13;;;3.53;;
17451;SDS011;8843;48.838;9.324;2023-05-14T14:05:27;3.90;;;3.60;;
17451;SDS011;8843;48.838;9.324;2023-05-14T14:07:57;3.33;;;3.10;;
17451;SDS011;8843;48.838;9.324;2023-05-14T14:10:23;3.33;;;3.10;;
17451;SDS011;8843;48.838;9.324;2023-05-14T14:12:51;3.40;;;3.10;;
17451;SDS011;8843;48.838;9.324;2023-05-14T14:15:18;4.00;;;3.63;;
17451;SDS011;8843;48.838;9.324;2023-05-14T14:17:45;3.97;;;3.07;;
17451;SDS011;8843;48.838;9.324;2023-05-14T14:20:13;4.20;;;3.60;;
17451;SDS011;8843;48.838;9.324;2023-05-14T14:22:40;4.40;;;3.13;;
17451;SDS011;8843;48.838;9.324;2023-05-14T14:25:10;6.33;;;3.00;;
17451;SDS011;8843;48.838;9.324;2023-05-14T14:27:37;3.67;;;3.00;;
17451;SDS011;8843;48.838;9.324;2023-05-14T14:30:05;3.47;;;3.17;;
17451;SDS011;8843;48.838;9.324;2023-05-14T14:32:33;3.60;;;3.30;;
17451;SDS011;8843;48.838;9.324;2023-05-14T14:35:00;3.60;;;3.30;;
17451;SDS011;8843;48.838;9.324;2023-05-14T14:37:27;3.77;;;3.00;;
17451;SDS011;8843;48.838;9.324;2023-05-14T14:39:54;2.83;;;2.63;;
17451;SDS011;8843;48.838;9.324;2023-05-14T14:42:22;3.70;;;3.30;;
17451;SDS011;8843;48.838;9.324;2023-05-14T14:44:49;3.00;;;2.80;;
17451;SDS011;8843;48.838;9.324;2023-05-14T14:47:16;3.50;;;3.20;;
17451;SDS011;8843;48.838;9.324;2023-05-14T14:49:42;3.70;;;3.40;;
17451;SDS011;8843;48.838;9.324;2023-05-14T14:52:09;3.60;;;3.30;;
17451;SDS011;8843;48.838;9.324;2023-05-14T14:54:36;5.73;;;3.90;;
17451;SDS011;8843;48.838;9.324;2023-05-14T14:57:03;3.60;;;3.17;;
17451;SDS011;8843;48.838;9.324;2023-05-14T14:59:33;3.53;;;3.23;;
17451;SDS011;8843;48.838;9.324;2023-05-14T15:02:00;2.87;;;2.67;;
17451;SDS011;8843;48.838;9.324;2023-05-14T15:04:27;3.43;;;3.10;;
17451;SDS011;8843;48.838;9.324;2023-05-14T15:06:56;4.83;;;3.20;;